sensor_id;sensor_type;location;lat;lon;timestamp;pressure;altitude;pressure_sealevel;temperature;humidity
58072;BME280;60383;46.626;18.866;2023-04-05T00:00:38;100716.03;;;2.08;53.29
58072;BME280;60383;46.626;18.866;2023-04-05T00:03:04;100711.97;;;2.01;53.97
58072;BME280;60383;46.626;18.866;2023-04-05T00:05:30;100710.50;;;1.81;53.25
58072;BME280;60383;46.626;18.866;2023-04-05T00:07:56;100709.84;;;2.06;52.74
58072;BME280;60383;46.626;18.866;2023-04-05T00:10:22;100708.69;;;1.96;53.22
58072;BME280;60383;46.626;18.866;2023-04-05T00:12:47;100722.38;;;1.92;53.24
58072;BME280;60383;46.626;18.866;2023-04-05T00:15:15;100716.69;;;1.97;53.24
58072;BME280;60383;46.626;18.866;2023-04-05T00:17:40;100708.19;;;1.89;52.94
58072;BME280;60383;46.626;18.866;2023-04-05T00:20:08;100718.88;;;1.76;53.14
58072;BME280;60383;46.626;18.866;2023-04-05T00:22:35;100715.72;;;1.84;53.31
58072;BME280;60383;46.626;18.866;2023-04-05T00:25:03;100713.16;;;1.66;53.61
58072;BME280;60383;46.626;18.866;2023-04-05T00:27:28;100716.28;;;1.74;53.47
58072;BME280;60383;46.626;18.866;2023-04-05T00:29:54;100711.75;;;1.75;53.81
58072;BME280;60383;46.626;18.866;2023-04-05T00:32:20;100698.91;;;1.79;53.23
58072;BME280;60383;46.626;18.866;2023-04-05T00:34:46;100699.78;;;1.79;53.38
58072;BME280;60383;46.626;18.866;2023-04-05T00:37:11;100704.13;;;1.82;53.36
58072;BME280;60383;46.626;18.866;2023-04-05T00:39:38;100702.19;;;1.69;53.23
58072;BME280;60383;46.626;18.866;2023-04-05T00:42:03;100710.22;;;1.85;53.30
58072;BME280;60383;46.626;18.866;2023-04-05T00:44:30;100708.53;;;1.68;53.47
58072;BME280;60383;46.626;18.866;2023-04-05T00:47:08;100697.50;;;1.42;53.76
58072;BME280;60383;46.626;18.866;2023-04-05T00:49:34;100706.28;;;1.46;54.06
58072;BME280;60383;46.626;18.866;2023-04-05T00:52:01;100715.59;;;1.40;54.05
58072;BME280;60383;46.626;18.866;2023-04-05T00:54:28;100703.16;;;1.38;53.92
58072;BME280;60383;46.626;18.866;2023-04-05T00:56:57;100709.03;;;1.44;53.53
58072;BME280;60383;46.626;18.866;2023-04-05T00:59:24;100703.72;;;1.73;53.69
58072;BME280;60383;46.626;18.866;2023-04-05T01:02:00;100703.81;;;1.72;53.30
58072;BME280;60383;46.626;18.866;2023-04-05T01:04:29;100703.03;;;1.70;53.55
58072;BME280;60383;46.626;18.866;2023-04-05T01:07:12;100709.09;;;1.59;53.77
58072;BME280;60383;46.626;18.866;2023-04-05T01:12:20;100710.03;;;1.58;53.51
58072;BME280;60383;46.626;18.866;2023-04-05T01:14:51;100706.53;;;1.72;53.65
58072;BME280;60383;46.626;18.866;2023-04-05T01:17:22;100714.16;;;1.80;53.77
58072;BME280;60383;46.626;18.866;2023-04-05T01:19:52;100711.75;;;1.75;53.19
58072;BME280;60383;46.626;18.866;2023-04-05T01:31:23;100697.41;;;2.18;54.55
58072;BME280;60383;46.626;18.866;2023-04-05T01:34:25;100701.44;;;1.96;55.33
58072;BME280;60383;46.626;18.866;2023-04-05T01:36:56;100705.56;;;1.73;56.06
58072;BME280;60383;46.626;18.866;2023-04-05T01:39:23;100701.16;;;1.86;56.13
58072;BME280;60383;46.626;18.866;2023-04-05T01:41:50;100694.50;;;1.92;56.20
58072;BME280;60383;46.626;18.866;2023-04-05T01:44:16;100694.00;;;1.85;56.62
58072;BME280;60383;46.626;18.866;2023-04-05T01:46:41;100696.09;;;1.66;57.35
58072;BME280;60383;46.626;18.866;2023-04-05T01:49:07;100698.66;;;1.53;57.95
58072;BME280;60383;46.626;18.866;2023-04-05T01:51:32;100687.88;;;1.53;58.67
58072;BME280;60383;46.626;18.866;2023-04-05T01:53:58;100692.81;;;1.61;58.14
58072;BME280;60383;46.626;18.866;2023-04-05T01:56:23;100688.97;;;1.34;59.58
58072;BME280;60383;46.626;18.866;2023-04-05T01:58:49;100692.00;;;1.44;59.82
58072;BME280;60383;46.626;18.866;2023-04-05T02:01:14;100689.78;;;1.36;59.39
58072;BME280;60383;46.626;18.866;2023-04-05T02:03:40;100689.44;;;1.26;60.10
58072;BME280;60383;46.626;18.866;2023-04-05T02:06:05;100682.66;;;1.50;59.74
58072;BME280;60383;46.626;18.866;2023-04-05T02:08:31;100688.88;;;1.36;60.02
58072;BME280;60383;46.626;18.866;2023-04-05T02:10:56;100682.84;;;1.16;59.95
58072;BME280;60383;46.626;18.866;2023-04-05T02:13:22;100690.41;;;1.25;60.26
58072;BME280;60383;46.626;18.866;2023-04-05T02:15:48;100682.44;;;1.38;60.00
58072;BME280;60383;46.626;18.866;2023-04-05T02:18:17;100688.41;;;1.29;59.57
58072;BME280;60383;46.626;18.866;2023-04-05T02:21:03;100689.34;;;0.98;59.62
58072;BME280;60383;46.626;18.866;2023-04-05T02:23:29;100690.38;;;0.79;60.72
58072;BME280;60383;46.626;18.866;2023-04-05T02:25:55;100693.50;;;0.87;61.60
58072;BME280;60383;46.626;18.866;2023-04-05T02:28:20;100688.53;;;0.95;60.86
58072;BME280;60383;46.626;18.866;2023-04-05T02:30:46;100685.13;;;1.08;60.07
58072;BME280;60383;46.626;18.866;2023-04-05T02:33:11;100686.88;;;1.09;60.81
58072;BME280;60383;46.626;18.866;2023-04-05T02:35:37;100691.47;;;1.37;59.43
58072;BME280;60383;46.626;18.866;2023-04-05T02:38:03;100694.66;;;1.30;59.38
58072;BME280;60383;46.626;18.866;2023-04-05T02:40:30;100693.78;;;0.99;59.99
58072;BME280;60383;46.626;18.866;2023-04-05T02:42:55;100692.28;;;0.93;60.10
58072;BME280;60383;46.626;18.866;2023-04-05T02:45:21;100695.09;;;0.91;60.85
58072;BME280;60383;46.626;18.866;2023-04-05T02:47:46;100688.84;;;1.21;59.68
58072;BME280;60383;46.626;18.866;2023-04-05T02:50:12;100690.19;;;0.98;60.30
58072;BME280;60383;46.626;18.866;2023-04-05T02:52:37;100692.97;;;0.97;59.99
58072;BME280;60383;46.626;18.866;2023-04-05T02:55:05;100687.50;;;0.98;59.73
58072;BME280;60383;46.626;18.866;2023-04-05T02:57:30;100697.94;;;0.88;60.24
58072;BME280;60383;46.626;18.866;2023-04-05T02:59:56;100699.34;;;0.95;59.76
58072;BME280;60383;46.626;18.866;2023-04-05T03:02:21;100688.38;;;0.99;60.03
58072;BME280;60383;46.626;18.866;2023-04-05T03:04:47;100695.69;;;0.81;60.07
58072;BME280;60383;46.626;18.866;2023-04-05T03:07:12;100696.91;;;0.75;60.50
58072;BME280;60383;46.626;18.866;2023-04-05T03:09:43;100696.66;;;0.47;60.42
58072;BME280;60383;46.626;18.866;2023-04-05T03:12:10;100696.06;;;0.74;60.17
58072;BME280;60383;46.626;18.866;2023-04-05T03:14:37;100709.69;;;0.71;60.24
58072;BME280;60383;46.626;18.866;2023-04-05T03:17:02;100701.81;;;0.68;59.89
58072;BME280;60383;46.626;18.866;2023-04-05T03:19:28;100706.19;;;0.37;60.46
58072;BME280;60383;46.626;18.866;2023-04-05T03:21:53;100708.16;;;0.51;60.31
58072;BME280;60383;46.626;18.866;2023-04-05T03:24:19;100705.75;;;0.45;60.70
58072;BME280;60383;46.626;18.866;2023-04-05T03:26:46;100714.03;;;0.26;60.93
58072;BME280;60383;46.626;18.866;2023-04-05T03:29:12;100716.47;;;0.30;61.17
58072;BME280;60383;46.626;18.866;2023-04-05T03:31:38;100710.97;;;0.16;61.13
58072;BME280;60383;46.626;18.866;2023-04-05T03:34:04;100715.00;;;0.07;61.95
58072;BME280;60383;46.626;18.866;2023-04-05T03:36:29;100715.81;;;0.25;61.02
58072;BME280;60383;46.626;18.866;2023-04-05T03:39:09;100716.25;;;0.18;60.46
58072;BME280;60383;46.626;18.866;2023-04-05T03:41:36;100719.69;;;0.04;61.24
58072;BME280;60383;46.626;18.866;2023-04-05T03:44:02;100719.00;;;0.00;60.88
58072;BME280;60383;46.626;18.866;2023-04-05T03:46:27;100720.00;;;-0.03;61.36
58072;BME280;60383;46.626;18.866;2023-04-05T03:48:53;100722.22;;;0.07;60.58
58072;BME280;60383;46.626;18.866;2023-04-05T03:51:18;100726.06;;;-0.15;60.66
58072;BME280;60383;46.626;18.866;2023-04-05T03:53:44;100727.09;;;-0.18;61.52
58072;BME280;60383;46.626;18.866;2023-04-05T03:56:10;100728.09;;;-0.03;61.18
58072;BME280;60383;46.626;18.866;2023-04-05T03:58:36;100727.25;;;0.30;60.48
58072;BME280;60383;46.626;18.866;2023-04-05T04:01:02;100733.84;;;0.07;60.36
58072;BME280;60383;46.626;18.866;2023-04-05T04:03:28;100736.03;;;0.01;60.26
58072;BME280;60383;46.626;18.866;2023-04-05T04:05:55;100730.44;;;-0.30;60.56
58072;BME280;60383;46.626;18.866;2023-04-05T04:08:21;100740.00;;;-0.07;60.25
58072;BME280;60383;46.626;18.866;2023-04-05T04:10:47;100741.97;;;-0.10;60.33
58072;BME280;60383;46.626;18.866;2023-04-05T04:13:12;100739.47;;;0.20;60.02
58072;BME280;60383;46.626;18.866;2023-04-05T04:15:38;100749.41;;;0.02;59.55
58072;BME280;60383;46.626;18.866;2023-04-05T04:18:03;100748.78;;;-0.03;60.15
58072;BME280;60383;46.626;18.866;2023-04-05T04:20:29;100743.09;;;-0.14;60.41
58072;BME280;60383;46.626;18.866;2023-04-05T04:22:56;100740.59;;;-0.02;59.61
58072;BME280;60383;46.626;18.866;2023-04-05T04:25:21;100741.44;;;0.17;59.70
58072;BME280;60383;46.626;18.866;2023-04-05T04:27:47;100743.47;;;-0.05;59.17
58072;BME280;60383;46.626;18.866;2023-04-05T04:30:15;100739.88;;;-0.39;59.89
58072;BME280;60383;46.626;18.866;2023-04-05T04:32:41;100753.31;;;-0.39;60.65
58072;BME280;60383;46.626;18.866;2023-04-05T04:35:27;100746.72;;;-0.33;60.21
58072;BME280;60383;46.626;18.866;2023-04-05T04:37:57;100745.53;;;-0.62;61.70
58072;BME280;60383;46.626;18.866;2023-04-05T04:40:45;100756.22;;;-0.61;61.44
58072;BME280;60383;46.626;18.866;2023-04-05T04:43:14;100745.09;;;-0.18;60.51
58072;BME280;60383;46.626;18.866;2023-04-05T04:45:46;100756.16;;;-0.07;60.01
58072;BME280;60383;46.626;18.866;2023-04-05T04:48:15;100750.53;;;-0.20;60.71
58072;BME280;60383;46.626;18.866;2023-04-05T04:50:45;100757.69;;;-0.36;60.93
58072;BME280;60383;46.626;18.866;2023-04-05T04:53:11;100752.03;;;-0.14;60.13
58072;BME280;60383;46.626;18.866;2023-04-05T04:55:40;100753.25;;;0.14;59.30
58072;BME280;60383;46.626;18.866;2023-04-05T04:58:10;100761.56;;;-0.24;59.63
58072;BME280;60383;46.626;18.866;2023-04-05T05:00:40;100765.16;;;0.10;60.00
58072;BME280;60383;46.626;18.866;2023-04-05T05:03:09;100767.22;;;0.05;59.39
58072;BME280;60383;46.626;18.866;2023-04-05T05:05:48;100760.50;;;-0.04;59.67
58072;BME280;60383;46.626;18.866;2023-04-05T05:08:14;100763.66;;;0.04;59.03
58072;BME280;60383;46.626;18.866;2023-04-05T05:10:40;100764.72;;;-0.34;59.29
58072;BME280;60383;46.626;18.866;2023-04-05T05:13:06;100764.22;;;-0.07;59.31
58072;BME280;60383;46.626;18.866;2023-04-05T05:15:32;100758.84;;;-0.42;59.06
58072;BME280;60383;46.626;18.866;2023-04-05T05:17:57;100763.03;;;-0.01;58.76
58072;BME280;60383;46.626;18.866;2023-04-05T05:20:24;100768.97;;;0.06;58.54
58072;BME280;60383;46.626;18.866;2023-04-05T05:22:51;100774.03;;;0.45;57.54
58072;BME280;60383;46.626;18.866;2023-04-05T05:25:17;100779.53;;;0.60;57.18
58072;BME280;60383;46.626;18.866;2023-04-05T05:27:42;100771.66;;;0.89;56.33
58072;BME280;60383;46.626;18.866;2023-04-05T05:30:08;100770.59;;;1.07;54.63
58072;BME280;60383;46.626;18.866;2023-04-05T05:32:34;100762.91;;;1.00;55.93
58072;BME280;60383;46.626;18.866;2023-04-05T05:34:59;100773.72;;;1.16;54.47
58072;BME280;60383;46.626;18.866;2023-04-05T05:37:29;100770.41;;;1.26;53.83
58072;BME280;60383;46.626;18.866;2023-04-05T05:39:55;100770.75;;;1.04;54.38
58072;BME280;60383;46.626;18.866;2023-04-05T05:42:21;100772.75;;;1.33;54.37
58072;BME280;60383;46.626;18.866;2023-04-05T05:44:46;100771.06;;;1.46;53.38
58072;BME280;60383;46.626;18.866;2023-04-05T05:47:12;100773.72;;;1.62;53.15
58072;BME280;60383;46.626;18.866;2023-04-05T05:49:37;100768.59;;;1.57;52.55
58072;BME280;60383;46.626;18.866;2023-04-05T05:52:03;100777.00;;;1.67;53.93
58072;BME280;60383;46.626;18.866;2023-04-05T05:54:29;100771.66;;;1.82;54.14
58072;BME280;60383;46.626;18.866;2023-04-05T05:56:54;100765.50;;;1.94;52.66
58072;BME280;60383;46.626;18.866;2023-04-05T05:59:20;100768.91;;;2.12;52.13
58072;BME280;60383;46.626;18.866;2023-04-05T06:01:45;100771.06;;;2.21;52.19
58072;BME280;60383;46.626;18.866;2023-04-05T06:04:12;100769.22;;;2.22;52.12
58072;BME280;60383;46.626;18.866;2023-04-05T06:06:37;100775.00;;;2.30;52.03
58072;BME280;60383;46.626;18.866;2023-04-05T06:09:04;100768.94;;;2.41;51.41
58072;BME280;60383;46.626;18.866;2023-04-05T06:11:29;100765.34;;;2.40;51.84
58072;BME280;60383;46.626;18.866;2023-04-05T06:13:55;100770.00;;;2.67;50.91
58072;BME280;60383;46.626;18.866;2023-04-05T06:16:20;100764.09;;;2.75;51.03
58072;BME280;60383;46.626;18.866;2023-04-05T06:18:46;100771.78;;;2.81;50.43
58072;BME280;60383;46.626;18.866;2023-04-05T06:21:12;100761.09;;;2.65;50.87
58072;BME280;60383;46.626;18.866;2023-04-05T06:23:39;100763.06;;;3.05;50.20
58072;BME280;60383;46.626;18.866;2023-04-05T06:26:07;100766.88;;;3.15;50.06
58072;BME280;60383;46.626;18.866;2023-04-05T06:28:33;100760.25;;;3.07;50.30
58072;BME280;60383;46.626;18.866;2023-04-05T06:30:58;100758.19;;;3.38;48.88
58072;BME280;60383;46.626;18.866;2023-04-05T06:33:24;100762.44;;;3.14;50.63
58072;BME280;60383;46.626;18.866;2023-04-05T06:35:51;100760.72;;;3.54;49.58
58072;BME280;60383;46.626;18.866;2023-04-05T06:38:16;100761.97;;;3.75;49.42
58072;BME280;60383;46.626;18.866;2023-04-05T06:40:42;100760.84;;;4.05;49.55
58072;BME280;60383;46.626;18.866;2023-04-05T06:43:08;100764.09;;;3.97;48.83
58072;BME280;60383;46.626;18.866;2023-04-05T06:45:35;100757.28;;;4.18;48.67
58072;BME280;60383;46.626;18.866;2023-04-05T06:48:01;100757.81;;;4.48;47.29
58072;BME280;60383;46.626;18.866;2023-04-05T06:50:26;100753.53;;;4.70;46.97
58072;BME280;60383;46.626;18.866;2023-04-05T06:52:52;100752.34;;;4.61;45.74
58072;BME280;60383;46.626;18.866;2023-04-05T06:55:17;100757.66;;;4.76;46.45
58072;BME280;60383;46.626;18.866;2023-04-05T06:57:43;100756.28;;;4.94;46.82
58072;BME280;60383;46.626;18.866;2023-04-05T07:00:11;100762.28;;;4.87;47.74
58072;BME280;60383;46.626;18.866;2023-04-05T07:02:40;100765.28;;;5.08;44.79
58072;BME280;60383;46.626;18.866;2023-04-05T07:05:06;100769.69;;;5.22;45.24
58072;BME280;60383;46.626;18.866;2023-04-05T07:07:32;100766.16;;;5.57;44.52
58072;BME280;60383;46.626;18.866;2023-04-05T07:10:00;100758.97;;;5.80;44.69
58072;BME280;60383;46.626;18.866;2023-04-05T07:12:25;100765.47;;;5.66;44.34
58072;BME280;60383;46.626;18.866;2023-04-05T07:14:51;100767.72;;;5.72;44.83
58072;BME280;60383;46.626;18.866;2023-04-05T07:17:16;100769.84;;;5.91;44.81
58072;BME280;60383;46.626;18.866;2023-04-05T07:19:42;100767.31;;;5.66;45.55
58072;BME280;60383;46.626;18.866;2023-04-05T07:22:08;100767.84;;;6.06;43.57
58072;BME280;60383;46.626;18.866;2023-04-05T07:24:34;100766.00;;;6.18;43.12
58072;BME280;60383;46.626;18.866;2023-04-05T07:26:59;100765.81;;;5.62;45.69
58072;BME280;60383;46.626;18.866;2023-04-05T07:29:26;100764.09;;;5.60;44.89
58072;BME280;60383;46.626;18.866;2023-04-05T07:31:51;100765.63;;;6.12;42.73
58072;BME280;60383;46.626;18.866;2023-04-05T07:34:17;100756.22;;;6.04;42.62
58072;BME280;60383;46.626;18.866;2023-04-05T07:36:42;100764.22;;;6.42;43.18
58072;BME280;60383;46.626;18.866;2023-04-05T07:39:08;100760.00;;;6.71;43.72
58072;BME280;60383;46.626;18.866;2023-04-05T07:41:33;100763.81;;;6.46;41.66
58072;BME280;60383;46.626;18.866;2023-04-05T07:44:02;100759.38;;;6.45;41.47
58072;BME280;60383;46.626;18.866;2023-04-05T07:46:28;100751.97;;;6.59;42.34
58072;BME280;60383;46.626;18.866;2023-04-05T07:48:54;100754.28;;;6.63;41.56
58072;BME280;60383;46.626;18.866;2023-04-05T07:51:20;100759.38;;;6.45;41.26
58072;BME280;60383;46.626;18.866;2023-04-05T07:53:46;100755.78;;;6.67;41.17
58072;BME280;60383;46.626;18.866;2023-04-05T07:56:13;100756.28;;;6.72;42.32
58072;BME280;60383;46.626;18.866;2023-04-05T07:58:38;100756.75;;;6.44;41.62
58072;BME280;60383;46.626;18.866;2023-04-05T08:01:07;100756.84;;;7.10;41.56
58072;BME280;60383;46.626;18.866;2023-04-05T08:03:33;100754.44;;;6.50;42.02
58072;BME280;60383;46.626;18.866;2023-04-05T08:06:15;100767.31;;;6.71;41.78
58072;BME280;60383;46.626;18.866;2023-04-05T08:08:44;100769.50;;;7.00;42.93
58072;BME280;60383;46.626;18.866;2023-04-05T08:11:10;100757.72;;;6.99;42.04
58072;BME280;60383;46.626;18.866;2023-04-05T08:13:36;100764.97;;;7.33;40.84
58072;BME280;60383;46.626;18.866;2023-04-05T08:16:04;100764.97;;;7.33;41.30
58072;BME280;60383;46.626;18.866;2023-04-05T08:18:30;100764.28;;;7.52;39.62
58072;BME280;60383;46.626;18.866;2023-04-05T08:20:56;100766.41;;;7.81;39.56
58072;BME280;60383;46.626;18.866;2023-04-05T08:23:22;100758.22;;;7.81;39.42
58072;BME280;60383;46.626;18.866;2023-04-05T08:25:48;100763.41;;;7.84;38.08
58072;BME280;60383;46.626;18.866;2023-04-05T08:28:13;100766.47;;;7.70;38.88
58072;BME280;60383;46.626;18.866;2023-04-05T08:30:39;100765.72;;;7.67;39.62
58072;BME280;60383;46.626;18.866;2023-04-05T08:33:06;100764.63;;;7.59;39.53
58072;BME280;60383;46.626;18.866;2023-04-05T08:35:34;100758.09;;;7.82;37.64
58072;BME280;60383;46.626;18.866;2023-04-05T08:38:00;100774.19;;;7.86;39.66
58072;BME280;60383;46.626;18.866;2023-04-05T08:40:38;100761.28;;;8.09;38.69
58072;BME280;60383;46.626;18.866;2023-04-05T08:43:22;100767.59;;;8.30;38.77
58072;BME280;60383;46.626;18.866;2023-04-05T08:45:51;100763.56;;;8.04;37.60
58072;BME280;60383;46.626;18.866;2023-04-05T08:48:17;100769.88;;;8.04;37.40
58072;BME280;60383;46.626;18.866;2023-04-05T08:50:52;100753.28;;;8.38;37.84
58072;BME280;60383;46.626;18.866;2023-04-05T08:53:18;100761.69;;;8.25;37.59
58072;BME280;60383;46.626;18.866;2023-04-05T08:55:48;100752.28;;;8.39;37.13
58072;BME280;60383;46.626;18.866;2023-04-05T08:58:15;100752.69;;;8.56;35.47
58072;BME280;60383;46.626;18.866;2023-04-05T09:00:42;100746.66;;;8.52;35.59
58072;BME280;60383;46.626;18.866;2023-04-05T09:03:14;100744.22;;;8.90;36.82
58072;BME280;60383;46.626;18.866;2023-04-05T09:05:44;100748.41;;;9.14;35.88
58072;BME280;60383;46.626;18.866;2023-04-05T09:08:11;100739.75;;;8.89;35.81
58072;BME280;60383;46.626;18.866;2023-04-05T09:10:37;100735.31;;;8.98;34.49
58072;BME280;60383;46.626;18.866;2023-04-05T09:13:03;100736.75;;;8.92;35.79
58072;BME280;60383;46.626;18.866;2023-04-05T09:15:29;100739.22;;;9.05;35.34
58072;BME280;60383;46.626;18.866;2023-04-05T09:17:55;100732.44;;;8.99;34.16
58072;BME280;60383;46.626;18.866;2023-04-05T09:20:21;100741.94;;;8.54;36.10
58072;BME280;60383;46.626;18.866;2023-04-05T09:22:47;100742.50;;;8.37;35.57
58072;BME280;60383;46.626;18.866;2023-04-05T09:27:56;100737.53;;;8.21;37.38
58072;BME280;60383;46.626;18.866;2023-04-05T09:30:23;100740.19;;;7.68;36.34
58072;BME280;60383;46.626;18.866;2023-04-05T09:32:53;100747.09;;;7.73;36.69
58072;BME280;60383;46.626;18.866;2023-04-05T09:35:28;100731.03;;;8.64;36.16
58072;BME280;60383;46.626;18.866;2023-04-05T09:40:21;100726.44;;;9.15;35.98
58072;BME280;60383;46.626;18.866;2023-04-05T09:42:46;100726.69;;;9.02;35.37
58072;BME280;60383;46.626;18.866;2023-04-05T09:45:13;100733.19;;;9.11;34.73
58072;BME280;60383;46.626;18.866;2023-04-05T09:47:39;100735.66;;;9.14;33.86
58072;BME280;60383;46.626;18.866;2023-04-05T09:52:41;100726.44;;;9.15;36.69
58072;BME280;60383;46.626;18.866;2023-04-05T09:55:07;100727.66;;;8.91;35.93
58072;BME280;60383;46.626;18.866;2023-04-05T09:57:37;100724.91;;;9.62;33.02
58072;BME280;60383;46.626;18.866;2023-04-05T10:00:16;100725.75;;;9.72;34.47
58072;BME280;60383;46.626;18.866;2023-04-05T10:02:42;100719.84;;;9.27;33.56
58072;BME280;60383;46.626;18.866;2023-04-05T10:05:09;100716.53;;;9.24;33.04
58072;BME280;60383;46.626;18.866;2023-04-05T10:07:46;100721.00;;;9.54;33.05
58072;BME280;60383;46.626;18.866;2023-04-05T10:10:12;100710.63;;;9.78;32.76
58072;BME280;60383;46.626;18.866;2023-04-05T10:12:40;100722.44;;;9.39;34.33
58072;BME280;60383;46.626;18.866;2023-04-05T10:15:07;100722.59;;;9.47;34.36
58072;BME280;60383;46.626;18.866;2023-04-05T10:17:52;100712.06;;;9.33;34.95
58072;BME280;60383;46.626;18.866;2023-04-05T10:20:23;100724.16;;;9.20;35.12
58072;BME280;60383;46.626;18.866;2023-04-05T10:23:16;100715.25;;;9.87;34.74
58072;BME280;60383;46.626;18.866;2023-04-05T10:28:36;100705.53;;;10.97;31.42
58072;BME280;60383;46.626;18.866;2023-04-05T10:33:54;100708.78;;;9.78;32.07
58072;BME280;60383;46.626;18.866;2023-04-05T10:36:49;100702.59;;;9.56;33.07
58072;BME280;60383;46.626;18.866;2023-04-05T10:39:25;100704.69;;;9.04;34.37
58072;BME280;60383;46.626;18.866;2023-04-05T10:42:13;100701.59;;;9.77;33.79
58072;BME280;60383;46.626;18.866;2023-04-05T10:44:51;100699.81;;;9.96;33.22
58072;BME280;60383;46.626;18.866;2023-04-05T10:47:18;100701.47;;;10.26;31.89
58072;BME280;60383;46.626;18.866;2023-04-05T10:49:48;100700.38;;;10.57;32.59
58072;BME280;60383;46.626;18.866;2023-04-05T10:52:18;100699.75;;;10.25;33.50
58072;BME280;60383;46.626;18.866;2023-04-05T10:54:44;100700.56;;;9.78;34.43
58072;BME280;60383;46.626;18.866;2023-04-05T10:57:10;100705.19;;;9.48;33.52
58072;BME280;60383;46.626;18.866;2023-04-05T10:59:44;100698.81;;;9.18;33.67
58072;BME280;60383;46.626;18.866;2023-04-05T11:02:13;100698.56;;;9.61;33.52
58072;BME280;60383;46.626;18.866;2023-04-05T11:04:40;100691.22;;;9.71;34.08
58072;BME280;60383;46.626;18.866;2023-04-05T11:07:15;100684.00;;;10.47;32.63
58072;BME280;60383;46.626;18.866;2023-04-05T11:10:00;100686.56;;;10.48;31.71
58072;BME280;60383;46.626;18.866;2023-04-05T11:23:17;100684.47;;;10.70;32.16
58072;BME280;60383;46.626;18.866;2023-04-05T11:26:06;100680.44;;;10.36;32.85
58072;BME280;60383;46.626;18.866;2023-04-05T11:28:37;100690.25;;;10.67;32.27
58072;BME280;60383;46.626;18.866;2023-04-05T11:31:21;100682.22;;;10.83;31.64
58072;BME280;60383;46.626;18.866;2023-04-05T11:33:54;100678.69;;;10.73;33.01
58072;BME280;60383;46.626;18.866;2023-04-05T11:36:48;100666.78;;;11.28;31.87
58072;BME280;60383;46.626;18.866;2023-04-05T11:41:47;100668.50;;;11.29;31.15
58072;BME280;60383;46.626;18.866;2023-04-05T11:44:17;100675.88;;;10.83;31.86
58072;BME280;60383;46.626;18.866;2023-04-05T11:46:45;100665.72;;;9.70;33.22
58072;BME280;60383;46.626;18.866;2023-04-05T11:49:11;100672.03;;;8.92;33.44
58072;BME280;60383;46.626;18.866;2023-04-05T11:51:39;100671.78;;;9.05;33.74
58072;BME280;60383;46.626;18.866;2023-04-05T11:54:07;100668.75;;;9.77;33.58
58072;BME280;60383;46.626;18.866;2023-04-05T11:56:33;100662.81;;;10.01;33.79
58072;BME280;60383;46.626;18.866;2023-04-05T11:58:59;100656.84;;;10.63;33.47
58072;BME280;60383;46.626;18.866;2023-04-05T12:01:24;100654.47;;;10.96;31.38
58072;BME280;60383;46.626;18.866;2023-04-05T12:03:54;100664.97;;;11.01;31.04
58072;BME280;60383;46.626;18.866;2023-04-05T12:06:24;100662.53;;;10.98;32.04
58072;BME280;60383;46.626;18.866;2023-04-05T12:08:50;100660.28;;;10.18;33.55
58072;BME280;60383;46.626;18.866;2023-04-05T12:11:24;100653.75;;;10.29;35.26
58072;BME280;60383;46.626;18.866;2023-04-05T12:13:55;100655.50;;;10.30;33.84
58072;BME280;60383;46.626;18.866;2023-04-05T12:16:23;100652.47;;;10.89;34.53
58072;BME280;60383;46.626;18.866;2023-04-05T12:18:52;100658.84;;;11.43;33.90
58072;BME280;60383;46.626;18.866;2023-04-05T12:21:19;100661.16;;;11.12;32.43
58072;BME280;60383;46.626;18.866;2023-04-05T12:23:45;100646.09;;;11.34;30.12
58072;BME280;60383;46.626;18.866;2023-04-05T12:26:11;100646.56;;;11.29;30.28
58072;BME280;60383;46.626;18.866;2023-04-05T12:31:16;100642.31;;;10.99;33.22
58072;BME280;60383;46.626;18.866;2023-04-05T12:33:42;100647.69;;;10.73;32.39
58072;BME280;60383;46.626;18.866;2023-04-05T12:36:08;100640.72;;;9.46;34.20
58072;BME280;60383;46.626;18.866;2023-04-05T12:38:36;100646.03;;;9.08;34.42
58072;BME280;60383;46.626;18.866;2023-04-05T12:41:03;100638.13;;;9.44;33.98
58072;BME280;60383;46.626;18.866;2023-04-05T12:43:41;100638.69;;;9.38;33.89
58072;BME280;60383;46.626;18.866;2023-04-05T12:46:10;100632.41;;;9.95;33.39
58072;BME280;60383;46.626;18.866;2023-04-05T12:48:40;100630.13;;;10.28;31.59
58072;BME280;60383;46.626;18.866;2023-04-05T12:51:14;100629.50;;;10.53;32.14
58072;BME280;60383;46.626;18.866;2023-04-05T12:53:44;100622.34;;;10.70;30.86
58072;BME280;60383;46.626;18.866;2023-04-05T12:56:11;100615.94;;;10.98;31.60
58072;BME280;60383;46.626;18.866;2023-04-05T12:58:36;100622.97;;;10.82;33.80
58072;BME280;60383;46.626;18.866;2023-04-05T13:01:03;100619.09;;;10.57;33.55
58072;BME280;60383;46.626;18.866;2023-04-05T13:03:28;100621.88;;;10.00;32.87
58072;BME280;60383;46.626;18.866;2023-04-05T13:05:54;100622.88;;;10.09;32.88
58072;BME280;60383;46.626;18.866;2023-04-05T13:08:20;100620.50;;;9.86;33.16
58072;BME280;60383;46.626;18.866;2023-04-05T13:10:46;100618.91;;;10.31;32.13
58072;BME280;60383;46.626;18.866;2023-04-05T13:13:13;100619.00;;;10.49;31.41
58072;BME280;60383;46.626;18.866;2023-04-05T13:15:38;100608.09;;;10.67;30.66
58072;BME280;60383;46.626;18.866;2023-04-05T13:18:04;100610.88;;;10.75;31.03
58072;BME280;60383;46.626;18.866;2023-04-05T13:20:30;100612.53;;;10.40;32.86
58072;BME280;60383;46.626;18.866;2023-04-05T13:22:56;100610.50;;;10.42;33.47
58072;BME280;60383;46.626;18.866;2023-04-05T13:25:21;100611.75;;;10.20;33.16
58072;BME280;60383;46.626;18.866;2023-04-05T13:27:47;100611.47;;;10.13;33.02
58072;BME280;60383;46.626;18.866;2023-04-05T13:30:12;100616.31;;;9.82;33.36
58072;BME280;60383;46.626;18.866;2023-04-05T13:32:38;100609.84;;;9.83;32.52